Time;durP1;ratioP1;P1;durP2;ratioP2;P2;SDS_P1;SDS_P2;PMS_P1;PMS_P2;Temp;Humidity;BMP_temperature;BMP_pressure;BME280_temperature;BME280_humidity;BME280_pressure;Samples;Min_cycle;Max_cycle;Signal;HPM_P1;HPM_P2
2022/08/23 00:01:14;;;;;;;;;;;;;;;24.00;54.65;101310.69;4999867;28;4123;-65
2022/08/23 00:03:43;;;;;;;;;;;;;;;23.99;54.64;101303.44;5000289;28;4567;-65
2022/08/23 00:06:09;;;;;;;;;;;;;;;23.99;54.73;101298.38;4996309;28;5313;-65
2022/08/23 00:08:36;;;;;;;;;;;;;;;23.99;54.80;101301.28;4992591;28;4235;-65
2022/08/23 00:11:02;;;;;;;;;;;;;;;23.99;54.76;101292.59;4996816;28;4286;-64
2022/08/23 00:13:30;;;;;;;;;;;;;;;23.99;54.87;101294.75;4999901;28;4235;-65
2022/08/23 00:16:13;;;;;;;;;;;;;;;23.99;54.74;101280.28;4996530;28;5252;-65
2022/08/23 00:18:40;;;;;;;;;;;;;;;23.99;55.01;101283.19;4995873;28;4278;-66
2022/08/23 00:21:14;;;;;;;;;;;;;;;23.98;54.74;101281.69;4998387;28;4167;-65
2022/08/23 00:23:40;;;;;;;;;;;;;;;23.97;54.99;101269.38;4998730;28;4096;-65
2022/08/23 00:26:06;;;;;;;;;;;;;;;23.99;54.99;101280.28;4995572;28;4413;-65
2022/08/23 00:28:33;;;;;;;;;;;;;;;23.98;55.07;101279.56;4990473;28;4187;-68
2022/08/23 00:31:00;;;;;;;;;;;;;;;23.98;54.92;101284.59;5000210;28;4697;-64
2022/08/23 00:33:26;;;;;;;;;;;;;;;23.97;54.86;101272.28;5008550;28;4244;-65
2022/08/23 00:35:52;;;;;;;;;;;;;;;23.98;54.83;101276.66;5001343;28;5520;-65
2022/08/23 00:38:19;;;;;;;;;;;;;;;23.97;54.98;101274.44;4996334;28;4223;-65
2022/08/23 00:40:58;;;;;;;;;;;;;;;23.98;54.84;101282.44;4995737;28;4217;-65
2022/08/23 00:49:19;;;;;;;;;;;;;;;23.97;55.07;101277.31;4994051;28;4165;-65
2022/08/23 00:51:48;;;;;;;;;;;;;;;23.97;54.90;101278.06;4994305;28;4202;-65
2022/08/23 00:54:18;;;;;;;;;;;;;;;23.97;55.14;101280.94;5000080;28;4240;-64
2022/08/23 00:56:45;;;;;;;;;;;;;;;23.97;55.04;101271.53;5001359;28;5180;-65
2022/08/23 00:59:12;;;;;;;;;;;;;;;23.97;55.16;101266.50;4992593;28;4392;-65
2022/08/23 01:01:38;;;;;;;;;;;;;;;23.96;55.01;101270.81;4994537;28;4579;-66
2022/08/23 01:04:04;;;;;;;;;;;;;;;23.96;55.06;101270.81;4994628;28;4356;-64
2022/08/23 01:06:33;;;;;;;;;;;;;;;23.97;55.29;101263.59;4993805;28;4174;-65
2022/08/23 01:09:05;;;;;;;;;;;;;;;23.96;55.14;101270.81;4999716;28;4194;-65
2022/08/23 01:11:34;;;;;;;;;;;;;;;23.97;55.09;101260.72;4997047;28;4257;-64
2022/08/23 01:14:07;;;;;;;;;;;;;;;23.96;55.08;101267.91;4983256;28;5526;-65
2022/08/23 01:16:53;;;;;;;;;;;;;;;23.96;55.15;101270.81;5010518;28;5189;-67
2022/08/23 01:19:24;;;;;;;;;;;;;;;23.96;55.19;101270.03;4995517;28;4141;-65
2022/08/23 01:21:52;;;;;;;;;;;;;;;23.96;55.25;101264.25;5009854;28;4697;-64
2022/08/23 01:24:19;;;;;;;;;;;;;;;23.95;55.24;101260.63;4990415;28;4317;-64
2022/08/23 01:27:05;;;;;;;;;;;;;;;23.96;55.05;101252.69;4989950;28;4724;-65
2022/08/23 01:29:32;;;;;;;;;;;;;;;23.95;55.09;101257.72;4980898;28;5350;-65
2022/08/23 01:31:59;;;;;;;;;;;;;;;23.96;55.19;101264.25;4994601;28;6614;-65
2022/08/23 01:34:26;;;;;;;;;;;;;;;23.97;55.19;101259.97;4981964;28;3988;-65
2022/08/23 01:36:52;;;;;;;;;;;;;;;23.96;55.05;101258.47;4992341;28;5308;-65
2022/08/23 01:39:19;;;;;;;;;;;;;;;23.95;55.17;101254.84;4990746;28;4581;-65
2022/08/23 01:41:45;;;;;;;;;;;;;;;23.96;55.07;101261.34;4998159;28;4198;-65
2022/08/23 01:44:12;;;;;;;;;;;;;;;23.95;55.30;101259.88;4999280;28;4273;-65
2022/08/23 01:46:40;;;;;;;;;;;;;;;23.96;55.17;101258.47;4991863;28;4037;-65
2022/08/23 01:49:06;;;;;;;;;;;;;;;23.95;55.28;101269.31;4980347;28;4032;-65
2022/08/23 01:51:34;;;;;;;;;;;;;;;23.95;55.36;101257.00;5012632;28;4271;-67
2022/08/23 01:54:00;;;;;;;;;;;;;;;23.96;55.26;101264.25;4998586;28;4074;-65
2022/08/23 01:56:26;;;;;;;;;;;;;;;23.95;55.45;101265.66;4999637;28;4064;-65
2022/08/23 01:59:05;;;;;;;;;;;;;;;23.95;55.36;101268.56;4990900;28;4182;-65
2022/08/23 02:01:38;;;;;;;;;;;;;;;23.94;55.17;101267.09;4979123;28;4327;-66
2022/08/23 02:04:04;;;;;;;;;;;;;;;23.95;55.21;101268.56;4995251;28;4269;-65
2022/08/23 02:06:31;;;;;;;;;;;;;;;23.94;55.44;101267.81;4995799;28;4261;-65
2022/08/23 02:09:01;;;;;;;;;;;;;;;23.95;55.30;101265.66;4994617;28;4279;-65
2022/08/23 02:11:33;;;;;;;;;;;;;;;23.94;55.43;101264.19;5013939;28;4313;-65
2022/08/23 02:14:00;;;;;;;;;;;;;;;23.93;55.47;101269.22;4996268;28;4072;-65
2022/08/23 02:16:35;;;;;;;;;;;;;;;23.93;55.49;101259.81;4995498;28;4294;-67
2022/08/23 02:19:04;;;;;;;;;;;;;;;23.93;55.54;101256.91;4995769;28;4411;-65
2022/08/23 02:21:30;;;;;;;;;;;;;;;23.92;55.56;101264.13;4996997;28;4304;-65
2022/08/23 02:23:57;;;;;;;;;;;;;;;23.91;55.74;101256.84;4998807;28;4196;-65
2022/08/23 02:26:23;;;;;;;;;;;;;;;23.90;55.74;101249.56;5000213;28;4199;-65
2022/08/23 02:28:56;;;;;;;;;;;;;;;23.91;55.38;101256.84;4998916;28;4200;-65
2022/08/23 02:31:23;;;;;;;;;;;;;;;23.90;55.43;101246.69;4999262;28;4009;-65
2022/08/23 02:33:51;;;;;;;;;;;;;;;23.91;55.45;101245.25;4994537;28;4208;-65
2022/08/23 02:36:36;;;;;;;;;;;;;;;23.90;55.48;101261.16;4992398;28;4515;-65
2022/08/23 02:39:03;;;;;;;;;;;;;;;23.89;55.53;101250.97;4990704;28;4070;-65
2022/08/23 02:41:30;;;;;;;;;;;;;;;23.89;55.58;101251.72;4994313;28;4179;-65
2022/08/23 02:43:57;;;;;;;;;;;;;;;23.90;55.56;101249.56;4996278;28;4034;-65
2022/08/23 02:46:23;;;;;;;;;;;;;;;23.90;55.65;101249.56;4987424;28;4046;-65
2022/08/23 02:48:51;;;;;;;;;;;;;;;23.89;55.66;101248.06;4988569;28;5478;-65
2022/08/23 02:51:18;;;;;;;;;;;;;;;23.89;55.77;101251.72;4996354;28;4392;-65
2022/08/23 02:53:45;;;;;;;;;;;;;;;23.89;55.46;101259.66;4994886;28;4231;-65
2022/08/23 02:56:11;;;;;;;;;;;;;;;23.90;55.67;101269.81;5013319;28;4216;-65
2022/08/23 02:58:48;;;;;;;;;;;;;;;23.90;55.65;101269.81;4991051;28;4137;-65
2022/08/23 03:01:25;;;;;;;;;;;;;;;23.90;55.60;101278.50;4990144;28;4298;-65
2022/08/23 03:03:53;;;;;;;;;;;;;;;23.90;55.76;101261.16;4997414;28;4255;-65
2022/08/23 03:06:20;;;;;;;;;;;;;;;23.90;55.84;101266.94;4994667;28;4126;-65
2022/08/23 03:08:51;;;;;;;;;;;;;;;23.89;55.53;101260.41;4995223;28;4248;-65
2022/08/23 03:11:19;;;;;;;;;;;;;;;23.89;55.63;101265.44;5013747;28;4161;-65
2022/08/23 03:13:49;;;;;;;;;;;;;;;23.90;55.52;101278.50;4997642;28;4235;-65
2022/08/23 03:16:15;;;;;;;;;;;;;;;23.89;55.57;101282.78;4998457;28;4092;-65
2022/08/23 03:18:45;;;;;;;;;;;;;;;23.89;55.79;101271.22;4991727;28;4267;-65
2022/08/23 03:21:11;;;;;;;;;;;;;;;23.90;55.70;101278.50;4997232;28;4444;-65
2022/08/23 03:23:38;;;;;;;;;;;;;;;23.91;55.55;101286.50;4994958;28;4217;-66
2022/08/23 03:26:05;;;;;;;;;;;;;;;23.91;55.84;101292.28;4994301;28;4329;-65
2022/08/23 03:28:34;;;;;;;;;;;;;;;23.91;55.65;101286.50;4993140;28;4438;-67
2022/08/23 03:31:01;;;;;;;;;;;;;;;23.92;55.49;101287.25;4994097;28;4207;-65
2022/08/23 03:33:28;;;;;;;;;;;;;;;23.92;55.54;101293.03;4992638;28;4577;-65
2022/08/23 03:35:58;;;;;;;;;;;;;;;23.91;55.67;101285.75;4993629;28;5285;-65
2022/08/23 03:38:25;;;;;;;;;;;;;;;23.92;55.69;101287.25;4994385;28;4208;-65
2022/08/23 03:40:52;;;;;;;;;;;;;;;23.90;55.55;101293.69;4993305;28;4364;-65
2022/08/23 03:43:20;;;;;;;;;;;;;;;23.91;55.77;101291.53;4991853;28;4266;-65
2022/08/23 03:45:46;;;;;;;;;;;;;;;23.91;55.87;101285.75;4997810;28;5295;-65
2022/08/23 03:48:13;;;;;;;;;;;;;;;23.90;55.55;101295.84;4997057;28;4113;-65
2022/08/23 03:50:39;;;;;;;;;;;;;;;23.90;55.81;101295.84;4993856;28;4079;-65
2022/08/23 03:53:06;;;;;;;;;;;;;;;23.90;55.56;101295.84;5005621;28;4299;-65
2022/08/23 03:55:34;;;;;;;;;;;;;;;23.90;55.75;101295.84;4990867;28;4291;-66
2022/08/23 03:58:11;;;;;;;;;;;;;;;23.90;55.96;101292.97;5003095;28;5572;-65
2022/08/23 04:00:37;;;;;;;;;;;;;;;23.90;55.61;101295.84;4994432;28;4265;-65
2022/08/23 04:03:04;;;;;;;;;;;;;;;23.90;55.84;101296.59;4992428;28;4083;-65
2022/08/23 04:05:39;;;;;;;;;;;;;;;23.90;55.72;101295.84;4992321;28;6565;-65
2022/08/23 04:08:12;;;;;;;;;;;;;;;23.89;55.74;101300.13;4990500;28;5725;-64
2022/08/23 04:10:40;;;;;;;;;;;;;;;23.89;55.63;101306.69;4992764;28;4573;-65
2022/08/23 04:13:07;;;;;;;;;;;;;;;23.89;55.63;101303.78;4992756;28;4222;-65
2022/08/23 04:15:34;;;;;;;;;;;;;;;23.90;55.80;101301.63;4999668;28;5341;-66
2022/08/23 04:18:01;;;;;;;;;;;;;;;23.89;55.73;101306.69;4996375;28;4118;-65
2022/08/23 04:20:28;;;;;;;;;;;;;;;23.89;55.90;101300.13;4993748;28;5307;-65
2022/08/23 04:22:58;;;;;;;;;;;;;;;23.90;55.70;101307.44;4990144;28;4205;-64
2022/08/23 04:25:27;;;;;;;;;;;;;;;23.89;56.03;101305.91;4997162;28;4158;-65
2022/08/23 04:27:59;;;;;;;;;;;;;;;23.90;55.74;101304.53;4999053;28;5992;-65
2022/08/23 04:30:26;;;;;;;;;;;;;;;23.89;56.02;101297.25;4998878;28;4388;-65
2022/08/23 04:32:53;;;;;;;;;;;;;;;23.88;55.65;101292.88;5008346;28;5539;-65
2022/08/23 04:35:21;;;;;;;;;;;;;;;23.88;55.84;101302.28;4999115;28;4204;-65
2022/08/23 04:37:47;;;;;;;;;;;;;;;23.89;55.80;101300.13;4997195;28;4099;-65
2022/08/23 04:42:59;;;;;;;;;;;;;;;23.88;55.79;101304.44;4993625;28;5449;-65
2022/08/23 04:45:26;;;;;;;;;;;;;;;23.89;55.79;101311.72;4995213;28;3989;-65
2022/08/23 04:47:52;;;;;;;;;;;;;;;23.88;55.79;101310.22;4998929;28;4041;-65
2022/08/23 04:50:19;;;;;;;;;;;;;;;23.88;55.71;101310.22;4994279;28;4121;-65
2022/08/23 04:53:11;;;;;;;;;;;;;;;23.75;56.70;101315.53;4994395;28;4202;-63
2022/08/23 04:55:49;;;;;;;;;;;;;;;23.61;56.55;101320.72;4996881;28;6415;-65
2022/08/23 04:58:15;;;;;;;;;;;;;;;23.48;57.11;101321.63;4995688;28;5703;-63
2022/08/23 05:00:50;;;;;;;;;;;;;;;23.42;57.21;101319.97;4987245;28;4254;-67
2022/08/23 05:03:22;;;;;;;;;;;;;;;23.15;58.96;101326.06;4978500;28;4232;-67
2022/08/23 05:05:49;;;;;;;;;;;;;;;23.10;58.81;101327.28;4966296;28;5334;-71
2022/08/23 05:08:17;;;;;;;;;;;;;;;23.17;59.82;101329.03;4953979;28;5048;-71
2022/08/23 05:10:44;;;;;;;;;;;;;;;23.12;58.77;101333.16;4985386;28;4535;-72
2022/08/23 05:13:10;;;;;;;;;;;;;;;23.19;59.12;101332.03;4988848;28;4291;-73
2022/08/23 05:15:36;;;;;;;;;;;;;;;23.10;59.06;101336.69;4965079;28;4436;-70
2022/08/23 05:18:03;;;;;;;;;;;;;;;23.27;58.49;101334.50;4974603;28;4139;-72
2022/08/23 05:20:31;;;;;;;;;;;;;;;23.38;58.24;101337.13;4989333;28;4182;-75
2022/08/23 05:22:58;;;;;;;;;;;;;;;23.27;58.44;101343.91;4974219;28;4102;-72
2022/08/23 05:25:48;;;;;;;;;;;;;;;23.25;58.52;101334.41;4966190;28;4266;-71
2022/08/23 05:28:28;;;;;;;;;;;;;;;23.29;58.10;101346.13;4973464;28;4263;-72
2022/08/23 05:30:56;;;;;;;;;;;;;;;23.24;58.47;101344.50;4970721;28;4499;-71
2022/08/23 05:33:23;;;;;;;;;;;;;;;23.20;58.58;101342.16;4974395;28;5618;-72
2022/08/23 05:35:49;;;;;;;;;;;;;;;23.19;58.26;101344.31;4969309;28;4590;-71
2022/08/23 05:38:16;;;;;;;;;;;;;;;23.12;58.78;101350.50;4971636;28;4302;-66
2022/08/23 05:40:49;;;;;;;;;;;;;;;22.79;59.22;101346.16;4967777;28;4211;-70
2022/08/23 05:43:20;;;;;;;;;;;;;;;22.62;59.99;101344.69;4974800;28;4090;-67
2022/08/23 05:45:46;;;;;;;;;;;;;;;22.49;60.72;101346.28;4973128;28;4227;-66
2022/08/23 05:48:14;;;;;;;;;;;;;;;22.50;60.74;101342.00;4970130;28;5658;-63
2022/08/23 05:50:47;;;;;;;;;;;;;;;22.21;61.52;101347.84;4971455;28;4096;-68
2022/08/23 05:53:13;;;;;;;;;;;;;;;22.48;60.88;101349.84;4970755;28;4261;-70
2022/08/23 05:55:42;;;;;;;;;;;;;;;22.31;61.38;101349.09;4971374;28;4513;-70
2022/08/23 05:58:16;;;;;;;;;;;;;;;22.53;62.96;101346.47;4977836;28;4945;-71
2022/08/23 06:00:44;;;;;;;;;;;;;;;22.74;61.46;101341.59;4975248;28;5608;-74
2022/08/23 06:03:10;;;;;;;;;;;;;;;22.78;60.68;101338.91;4983101;28;6022;-68
2022/08/23 06:05:38;;;;;;;;;;;;;;;22.59;61.05;101352.53;4994228;28;4200;-73
2022/08/23 06:08:05;;;;;;;;;;;;;;;22.79;60.71;101349.81;4978667;28;4190;-71
2022/08/23 06:10:33;;;;;;;;;;;;;;;22.84;60.47;101353.63;4976896;28;4675;-72
2022/08/23 06:13:04;;;;;;;;;;;;;;;22.76;61.15;101351.09;4977355;28;4442;-70
2022/08/23 06:15:31;;;;;;;;;;;;;;;22.74;61.12;101358.94;4967798;28;4461;-71
2022/08/23 06:17:57;;;;;;;;;;;;;;;22.69;61.09;101354.38;4976192;28;5223;-71
2022/08/23 06:20:24;;;;;;;;;;;;;;;22.66;61.33;101352.81;4972085;28;4262;-70
2022/08/23 06:23:00;;;;;;;;;;;;;;;22.75;61.23;101355.38;4966264;28;5664;-73
2022/08/23 06:25:27;;;;;;;;;;;;;;;22.64;61.53;101341.16;4970101;28;4225;-71
2022/08/23 06:28:04;;;;;;;;;;;;;;;22.66;61.88;101352.81;4970342;28;4437;-73
2022/08/23 06:30:31;;;;;;;;;;;;;;;22.64;62.07;101353.44;4987069;28;5587;-75
2022/08/23 06:33:00;;;;;;;;;;;;;;;22.82;61.56;101347.00;4968688;28;4218;-74
2022/08/23 06:35:29;;;;;;;;;;;;;;;22.76;61.96;101345.31;4972679;28;4152;-69
2022/08/23 06:38:34;;;;;;;;;;;;;;;22.57;62.34;101352.44;4962046;28;5117;-70
2022/08/23 06:41:24;;;;;;;;;;;;;;;22.34;63.21;101358.59;4972453;28;4117;-64
2022/08/23 06:44:23;;;;;;;;;;;;;;;22.50;62.91;101359.31;4968273;28;4580;-71
2022/08/23 06:46:58;;;;;;;;;;;;;;;22.95;61.81;101361.31;4969456;28;5182;-65
2022/08/23 06:49:26;;;;;;;;;;;;;;;23.05;61.48;101361.03;4972788;28;4033;-68
2022/08/23 06:51:54;;;;;;;;;;;;;;;22.89;62.37;101363.94;4974643;28;4727;-67
2022/08/23 06:54:39;;;;;;;;;;;;;;;22.97;62.31;101361.38;4970917;28;5923;-70
2022/08/23 06:57:33;;;;;;;;;;;;;;;23.00;62.68;101373.81;4965942;28;4455;-67
2022/08/23 07:00:17;;;;;;;;;;;;;;;23.00;62.09;101371.69;4966153;28;4352;-67
2022/08/23 07:03:06;;;;;;;;;;;;;;;22.93;62.42;101375.66;4972919;28;5614;-66
2022/08/23 07:05:51;;;;;;;;;;;;;;;23.21;62.21;101369.66;4971544;28;5122;-67
2022/08/23 07:08:24;;;;;;;;;;;;;;;22.80;62.40;101379.41;4983266;28;5357;-70
2022/08/23 07:10:50;;;;;;;;;;;;;;;22.87;62.59;101374.66;4970405;28;4664;-69
2022/08/23 07:13:16;;;;;;;;;;;;;;;22.88;62.56;101376.88;4974992;28;5851;-69
2022/08/23 07:15:44;;;;;;;;;;;;;;;22.75;62.93;101383.53;4968915;28;4664;-66
2022/08/23 07:18:16;;;;;;;;;;;;;;;22.78;62.88;101379.31;4974504;28;4238;-64
2022/08/23 07:20:43;;;;;;;;;;;;;;;22.63;63.61;101377.19;4973555;28;5799;-64
2022/08/23 07:23:09;;;;;;;;;;;;;;;22.66;63.20;101376.63;4970056;28;6631;-74
2022/08/23 07:25:39;;;;;;;;;;;;;;;23.03;62.76;101377.53;4986871;28;4459;-67
2022/08/23 07:28:07;;;;;;;;;;;;;;;23.42;61.39;101377.78;4986110;28;4060;-67
2022/08/23 07:30:37;;;;;;;;;;;;;;;23.66;60.35;101388.13;4962161;28;4350;-64
2022/08/23 07:33:10;;;;;;;;;;;;;;;23.83;59.63;101381.63;4979517;28;4420;-64
2022/08/23 07:35:56;;;;;;;;;;;;;;;23.87;59.22;101383.94;4966527;28;4774;-65
2022/08/23 07:38:23;;;;;;;;;;;;;;;23.85;59.44;101387.50;4974715;28;4039;-63
2022/08/23 07:40:57;;;;;;;;;;;;;;;23.86;59.30;101376.66;4966703;28;4513;-65
2022/08/23 07:43:23;;;;;;;;;;;;;;;23.94;59.03;101388.56;4971379;28;4279;-68
2022/08/23 07:45:51;;;;;;;;;;;;;;;23.94;59.23;101382.78;4970134;28;4517;-66
2022/08/23 07:48:18;;;;;;;;;;;;;;;23.98;59.13;101382.94;4975945;28;4467;-67
2022/08/23 07:51:12;;;;;;;;;;;;;;;23.94;59.01;101374.13;4960884;28;4478;-67
2022/08/23 07:53:38;;;;;;;;;;;;;;;24.04;58.82;101374.50;4989753;28;4163;-65
2022/08/23 07:56:11;;;;;;;;;;;;;;;24.11;58.55;101384.91;4968288;28;4136;-66
2022/08/23 07:59:13;;;;;;;;;;;;;;;24.08;58.70;101389.13;4951704;28;4044;-67
2022/08/23 08:01:53;;;;;;;;;;;;;;;24.10;58.61;101386.31;4969970;28;4571;-64
2022/08/23 08:04:21;;;;;;;;;;;;;;;24.14;58.51;101377.78;4974237;28;4368;-64
2022/08/23 08:06:49;;;;;;;;;;;;;;;24.08;58.45;101386.25;4973847;28;4490;-65
2022/08/23 08:09:38;;;;;;;;;;;;;;;24.12;58.64;101389.31;4975141;28;4616;-64
2022/08/23 08:12:04;;;;;;;;;;;;;;;24.14;58.63;101389.34;4971539;28;4180;-65
2022/08/23 08:14:31;;;;;;;;;;;;;;;24.17;58.31;101387.31;4990452;28;3996;-63
2022/08/23 08:17:01;;;;;;;;;;;;;;;24.21;58.28;101394.00;4967855;28;4000;-68
2022/08/23 08:19:56;;;;;;;;;;;;;;;24.21;58.30;101388.22;4973942;28;4361;-70
2022/08/23 08:22:40;;;;;;;;;;;;;;;24.33;58.18;101390.09;4970374;28;5670;-63
2022/08/23 08:25:31;;;;;;;;;;;;;;;24.47;57.67;101393.56;4965804;28;4623;-67
2022/08/23 08:27:58;;;;;;;;;;;;;;;24.18;57.88;101395.31;4980596;28;5699;-68
2022/08/23 08:30:24;;;;;;;;;;;;;;;23.97;58.54;101404.59;4987156;28;4526;-67
2022/08/23 08:32:51;;;;;;;;;;;;;;;23.79;59.07;101401.72;4973040;28;4459;-68
2022/08/23 08:35:19;;;;;;;;;;;;;;;23.68;59.54;101406.28;4992049;28;4244;-68
2022/08/23 08:37:45;;;;;;;;;;;;;;;23.67;59.41;101401.94;4968808;28;4495;-69
2022/08/23 08:40:14;;;;;;;;;;;;;;;23.68;59.34;101412.06;4963863;28;4474;-64
2022/08/23 08:42:44;;;;;;;;;;;;;;;23.74;59.43;101402.94;4989255;28;4278;-67
2022/08/23 08:45:26;;;;;;;;;;;;;;;23.63;59.43;101402.50;4969924;28;4230;-65
2022/08/23 08:47:59;;;;;;;;;;;;;;;23.66;59.48;101405.47;4965537;28;4163;-63
2022/08/23 08:50:32;;;;;;;;;;;;;;;23.61;59.41;101399.50;4961402;28;4108;-64
2022/08/23 08:53:08;;;;;;;;;;;;;;;23.64;59.79;101409.03;4971822;28;4113;-64
2022/08/23 08:56:11;;;;;;;;;;;;;;;23.76;59.46;101403.78;4975562;28;5677;-66
2022/08/23 08:58:44;;;;;;;;;;;;;;;23.69;60.04;101404.91;4970899;28;5331;-64
2022/08/23 09:01:11;;;;;;;;;;;;;;;23.79;59.26;101404.59;4991501;28;4633;-68
2022/08/23 09:03:38;;;;;;;;;;;;;;;23.72;59.62;101397.78;4968420;28;5676;-68
2022/08/23 09:06:19;;;;;;;;;;;;;;;23.75;59.35;101393.59;4973023;28;5222;-62
2022/08/23 09:08:53;;;;;;;;;;;;;;;23.67;59.52;101396.16;4956921;28;4263;-68
2022/08/23 09:11:27;;;;;;;;;;;;;;;23.60;59.83;101400.19;4959550;28;4100;-62
2022/08/23 09:14:05;;;;;;;;;;;;;;;23.69;59.49;101407.78;4984498;28;4503;-64
2022/08/23 09:16:37;;;;;;;;;;;;;;;23.71;59.81;101401.34;4965129;28;4314;-69
2022/08/23 09:19:04;;;;;;;;;;;;;;;23.75;59.38;101402.28;4985939;28;4175;-67
2022/08/23 09:21:32;;;;;;;;;;;;;;;23.84;59.47;101400.47;4977886;28;4562;-66
2022/08/23 09:23:59;;;;;;;;;;;;;;;23.90;59.02;101399.97;4960318;28;5221;-69
2022/08/23 09:26:44;;;;;;;;;;;;;;;23.94;59.04;101400.88;4987517;28;4437;-76
2022/08/23 09:29:13;;;;;;;;;;;;;;;24.01;58.65;101398.97;4980996;28;5610;-69
2022/08/23 09:31:43;;;;;;;;;;;;;;;23.73;58.42;101392.75;4993965;28;4671;-75
2022/08/23 09:34:14;;;;;;;;;;;;;;;23.77;58.28;101393.69;4985336;28;4232;-73
2022/08/23 09:36:51;;;;;;;;;;;;;;;23.74;58.41;101397.91;4955782;28;4626;-73
2022/08/23 09:39:31;;;;;;;;;;;;;;;23.71;58.52;101396.31;4949835;28;4397;-70
2022/08/23 09:42:02;;;;;;;;;;;;;;;23.68;58.80;101400.50;4971480;28;4666;-68
2022/08/23 09:44:34;;;;;;;;;;;;;;;23.72;58.84;101397.78;4987740;28;4257;-70
2022/08/23 09:47:05;;;;;;;;;;;;;;;23.74;58.68;101403.69;4987662;28;5372;-74
2022/08/23 09:49:34;;;;;;;;;;;;;;;23.77;58.64;101387.91;4967719;28;4573;-71
2022/08/23 09:52:18;;;;;;;;;;;;;;;23.76;58.66;101403.03;4972902;28;5400;-70
2022/08/23 09:54:55;;;;;;;;;;;;;;;23.90;58.74;101394.94;4974702;28;4582;-78
2022/08/23 09:57:23;;;;;;;;;;;;;;;24.06;58.15;101389.06;4999283;28;4209;-72
2022/08/23 09:59:54;;;;;;;;;;;;;;;24.11;57.72;101384.16;4977164;28;4203;-63
2022/08/23 10:02:29;;;;;;;;;;;;;;;24.15;57.63;101390.84;4990833;28;4274;-68
2022/08/23 10:05:14;;;;;;;;;;;;;;;24.20;57.47;101386.72;4963833;28;5295;-70
2022/08/23 10:07:41;;;;;;;;;;;;;;;24.24;57.23;101386.88;4977385;28;4377;-67
2022/08/23 10:10:12;;;;;;;;;;;;;;;24.27;56.94;101381.16;4976243;28;4497;-68
2022/08/23 10:12:39;;;;;;;;;;;;;;;24.39;56.58;101373.69;4981142;28;4562;-68
2022/08/23 10:15:08;;;;;;;;;;;;;;;24.40;56.27;101380.97;4994734;28;5516;-71
2022/08/23 10:17:52;;;;;;;;;;;;;;;24.24;56.55;101368.78;4975098;28;4560;-73
2022/08/23 10:20:23;;;;;;;;;;;;;;;24.08;57.07;101374.66;4969024;28;4188;-72
2022/08/23 10:23:03;;;;;;;;;;;;;;;23.97;56.99;101376.41;4985761;28;4230;-73
2022/08/23 10:25:44;;;;;;;;;;;;;;;24.47;56.53;101384.84;4991511;28;5313;-66
2022/08/23 10:31:05;;;;;;;;;;;;;;;24.74;55.57;101380.03;4959984;28;5656;-69
2022/08/23 10:33:34;;;;;;;;;;;;;;;24.59;55.25;101379.50;4975422;28;4031;-71
2022/08/23 10:36:01;;;;;;;;;;;;;;;24.74;55.28;101371.34;4971147;28;4377;-75
2022/08/23 10:38:36;;;;;;;;;;;;;;;24.73;54.38;101375.66;4972520;28;4161;-70
2022/08/23 10:41:17;;;;;;;;;;;;;;;24.86;53.75;101372.53;4957770;28;5562;-70
2022/08/23 10:44:07;;;;;;;;;;;;;;;24.82;53.10;101374.53;4958990;28;4271;-69
2022/08/23 10:46:37;;;;;;;;;;;;;;;24.85;53.57;101379.00;4978111;28;4389;-71
2022/08/23 10:49:03;;;;;;;;;;;;;;;24.91;53.26;101379.22;4976114;28;4483;-73
2022/08/23 10:51:37;;;;;;;;;;;;;;;24.87;52.67;101381.97;4951496;28;4588;-72
2022/08/23 10:54:11;;;;;;;;;;;;;;;24.88;53.09;101386.34;4992276;28;5227;-71
2022/08/23 10:56:38;;;;;;;;;;;;;;;24.84;52.83;101383.31;4980604;28;4138;-70
2022/08/23 10:59:21;;;;;;;;;;;;;;;25.07;52.59;101379.78;4982362;28;5492;-70
2022/08/23 11:02:06;;;;;;;;;;;;;;;24.91;52.84;101378.47;4961935;28;4503;-72
2022/08/23 11:04:55;;;;;;;;;;;;;;;25.00;52.72;101374.47;4981490;28;4397;-72
2022/08/23 11:07:30;;;;;;;;;;;;;;;25.01;52.27;101378.84;4979772;28;5449;-74
2022/08/23 11:10:03;;;;;;;;;;;;;;;25.06;52.18;101378.31;4975017;28;4526;-71
2022/08/23 11:12:32;;;;;;;;;;;;;;;25.06;52.27;101381.22;4962501;28;4452;-68
2022/08/23 11:15:08;;;;;;;;;;;;;;;25.08;51.93;101372.59;4992117;28;4483;-70
2022/08/23 11:17:49;;;;;;;;;;;;;;;25.08;51.94;101375.50;4986671;28;4597;-68
2022/08/23 11:20:35;;;;;;;;;;;;;;;25.04;51.83;101377.50;4972670;28;5318;-70
2022/08/23 11:23:03;;;;;;;;;;;;;;;25.09;51.98;101382.75;4973082;28;6840;-71
2022/08/23 11:25:30;;;;;;;;;;;;;;;25.13;51.79;101378.50;4991746;28;4881;-69
2022/08/23 11:28:25;;;;;;;;;;;;;;;24.83;50.69;101381.81;4977519;28;4740;-72
2022/08/23 11:30:56;;;;;;;;;;;;;;;24.55;49.78;101376.47;4988828;28;4556;-72
2022/08/23 11:33:30;;;;;;;;;;;;;;;24.45;49.19;101381.84;4967126;28;4633;-76
2022/08/23 11:36:10;;;;;;;;;;;;;;;24.73;50.65;101384.34;4976340;28;4663;-75
2022/08/23 11:38:46;;;;;;;;;;;;;;;24.88;50.00;101372.63;4993188;28;5138;-74
2022/08/23 11:41:13;;;;;;;;;;;;;;;24.93;49.91;101367.72;4979964;28;4095;-76
2022/08/23 11:43:41;;;;;;;;;;;;;;;24.88;49.24;101368.97;4977724;28;4813;-75
2022/08/23 11:46:11;;;;;;;;;;;;;;;24.90;49.55;101379.88;4980518;28;4329;-77
2022/08/23 11:48:39;;;;;;;;;;;;;;;25.08;49.67;101366.03;4983727;28;4416;-76
2022/08/23 11:51:30;;;;;;;;;;;;;;;25.12;49.71;101369.09;4977535;28;4087;-72
2022/08/23 11:54:01;;;;;;;;;;;;;;;25.12;50.01;101379.94;4987630;28;4214;-68
2022/08/23 11:56:33;;;;;;;;;;;;;;;25.09;49.37;101379.13;4980742;28;4182;-77
2022/08/23 11:59:11;;;;;;;;;;;;;;;25.11;49.72;101378.47;4981289;28;4225;-75
2022/08/23 12:01:38;;;;;;;;;;;;;;;25.24;49.71;101386.19;4980131;28;4182;-73
2022/08/23 12:04:10;;;;;;;;;;;;;;;25.16;49.67;101391.69;4976235;28;4199;-73
2022/08/23 12:06:37;;;;;;;;;;;;;;;25.16;49.81;101391.69;4976286;28;4209;-69
2022/08/23 12:09:12;;;;;;;;;;;;;;;25.14;50.02;101388.72;4979787;28;4253;-75
2022/08/23 12:11:59;;;;;;;;;;;;;;;25.20;50.33;101391.84;4981322;28;4617;-75
2022/08/23 12:14:29;;;;;;;;;;;;;;;25.21;50.13;101391.16;4973367;28;5168;-68
2022/08/23 12:17:24;;;;;;;;;;;;;;;25.20;50.10;101394.75;4964480;28;4724;-65
2022/08/23 12:19:57;;;;;;;;;;;;;;;25.21;50.68;101381.72;4967730;28;4472;-67
2022/08/23 12:22:28;;;;;;;;;;;;;;;25.23;49.98;101378.91;4966150;28;4746;-65
2022/08/23 12:25:02;;;;;;;;;;;;;;;25.20;50.27;101388.97;4963954;28;6008;-64
2022/08/23 12:27:37;;;;;;;;;;;;;;;25.32;50.00;101389.38;4962709;28;4270;-64
2022/08/23 12:30:06;;;;;;;;;;;;;;;25.14;49.69;101394.50;4971068;28;5685;-65
2022/08/23 12:32:38;;;;;;;;;;;;;;;25.09;50.01;101382.75;4968987;28;4203;-68
2022/08/23 12:35:05;;;;;;;;;;;;;;;25.18;49.87;101388.84;4968126;28;6980;-69
2022/08/23 12:37:49;;;;;;;;;;;;;;;25.21;50.06;101387.53;4968219;28;5445;-66
2022/08/23 12:40:30;;;;;;;;;;;;;;;25.11;50.37;101384.25;4966692;28;4370;-69
2022/08/23 12:43:07;;;;;;;;;;;;;;;25.07;49.59;101379.78;4969623;28;4858;-65
2022/08/23 12:45:38;;;;;;;;;;;;;;;25.16;49.81;101382.97;4971782;28;4252;-68
2022/08/23 12:48:05;;;;;;;;;;;;;;;25.14;49.89;101383.66;4969974;28;4463;-67
2022/08/23 12:50:32;;;;;;;;;;;;;;;25.11;49.82;101376.31;4971993;28;4314;-68
2022/08/23 12:53:00;;;;;;;;;;;;;;;25.09;50.38;101376.97;4969569;28;4116;-67
2022/08/23 12:55:32;;;;;;;;;;;;;;;25.08;50.30;101366.03;4969777;28;4501;-69
2022/08/23 12:57:58;;;;;;;;;;;;;;;25.12;50.62;101363.28;4958153;28;4513;-67
2022/08/23 13:00:27;;;;;;;;;;;;;;;25.09;50.26;101359.59;4957014;28;4103;-69
2022/08/23 13:03:00;;;;;;;;;;;;;;;25.11;50.69;101356.03;4956011;28;4134;-69
2022/08/23 13:05:32;;;;;;;;;;;;;;;25.21;50.27;101358.53;4964025;28;4362;-62
2022/08/23 13:07:59;;;;;;;;;;;;;;;25.22;49.79;101354.22;4978780;28;4410;-66
2022/08/23 13:10:26;;;;;;;;;;;;;;;25.27;49.93;101344.28;4967499;28;4611;-61
2022/08/23 13:12:52;;;;;;;;;;;;;;;25.24;50.09;101345.59;4966213;28;4407;-62
2022/08/23 13:15:58;;;;;;;;;;;;;;;25.35;49.95;101356.13;4962787;28;4157;-66
2022/08/23 13:18:24;;;;;;;;;;;;;;;25.34;50.43;101348.13;4941092;28;4576;-70
2022/08/23 13:21:09;;;;;;;;;;;;;;;25.27;50.56;101338.47;4940109;28;4157;-69
2022/08/23 13:23:36;;;;;;;;;;;;;;;25.27;50.77;101355.88;4956707;28;4407;-68